sensor_id;sensor_type;location;lat;lon;timestamp;temperature;humidity
73576;DHT22;61859;49.204;8.140;2023-07-08T00:01:16;21.80;51.00
73576;DHT22;61859;49.204;8.140;2023-07-08T00:03:42;21.70;50.80
73576;DHT22;61859;49.204;8.140;2023-07-08T00:06:19;21.60;51.00
73576;DHT22;61859;49.204;8.140;2023-07-08T00:08:45;21.60;50.40
73576;DHT22;61859;49.204;8.140;2023-07-08T00:11:12;21.50;50.60
73576;DHT22;61859;49.204;8.140;2023-07-08T00:13:38;21.50;51.30
73576;DHT22;61859;49.204;8.140;2023-07-08T00:16:04;21.50;51.40
73576;DHT22;61859;49.204;8.140;2023-07-08T00:18:30;21.40;50.90
73576;DHT22;61859;49.204;8.140;2023-07-08T00:20:55;21.50;51.20
73576;DHT22;61859;49.204;8.140;2023-07-08T00:23:21;21.40;51.50
73576;DHT22;61859;49.204;8.140;2023-07-08T00:25:47;21.20;51.70
73576;DHT22;61859;49.204;8.140;2023-07-08T00:28:21;21.20;51.70
73576;DHT22;61859;49.204;8.140;2023-07-08T00:30:47;21.20;52.20
73576;DHT22;61859;49.204;8.140;2023-07-08T00:33:12;21.20;52.00
73576;DHT22;61859;49.204;8.140;2023-07-08T00:35:42;21.10;51.50
73576;DHT22;61859;49.204;8.140;2023-07-08T00:38:23;21.10;51.60
73576;DHT22;61859;49.204;8.140;2023-07-08T00:43:37;21.10;51.40
73576;DHT22;61859;49.204;8.140;2023-07-08T00:51:36;21.10;51.50
73576;DHT22;61859;49.204;8.140;2023-07-08T00:54:17;20.90;52.10
73576;DHT22;61859;49.204;8.140;2023-07-08T00:56:56;21.00;52.20
73576;DHT22;61859;49.204;8.140;2023-07-08T01:00:08;20.90;52.70
73576;DHT22;61859;49.204;8.140;2023-07-08T01:02:38;20.80;53.20
73576;DHT22;61859;49.204;8.140;2023-07-08T01:05:10;20.80;53.10
73576;DHT22;61859;49.204;8.140;2023-07-08T01:07:39;20.70;52.80
73576;DHT22;61859;49.204;8.140;2023-07-08T01:10:11;20.70;52.70
73576;DHT22;61859;49.204;8.140;2023-07-08T01:12:47;20.60;52.90
73576;DHT22;61859;49.204;8.140;2023-07-08T01:15:14;20.60;53.30
73576;DHT22;61859;49.204;8.140;2023-07-08T01:17:43;20.60;53.70
73576;DHT22;61859;49.204;8.140;2023-07-08T01:20:09;20.50;53.70
73576;DHT22;61859;49.204;8.140;2023-07-08T01:22:42;20.50;53.90
73576;DHT22;61859;49.204;8.140;2023-07-08T01:25:08;20.40;53.80
73576;DHT22;61859;49.204;8.140;2023-07-08T01:27:38;20.50;53.70
73576;DHT22;61859;49.204;8.140;2023-07-08T01:30:05;20.40;53.90
73576;DHT22;61859;49.204;8.140;2023-07-08T01:32:33;20.40;54.30
73576;DHT22;61859;49.204;8.140;2023-07-08T01:35:00;20.20;54.10
73576;DHT22;61859;49.204;8.140;2023-07-08T01:37:52;20.20;54.20
73576;DHT22;61859;49.204;8.140;2023-07-08T01:40:32;20.20;54.10
73576;DHT22;61859;49.204;8.140;2023-07-08T01:42:59;20.30;54.30
73576;DHT22;61859;49.204;8.140;2023-07-08T01:45:28;20.20;53.90
73576;DHT22;61859;49.204;8.140;2023-07-08T01:48:02;20.20;54.30
73576;DHT22;61859;49.204;8.140;2023-07-08T01:50:29;20.20;53.90
73576;DHT22;61859;49.204;8.140;2023-07-08T01:52:59;20.20;54.10
73576;DHT22;61859;49.204;8.140;2023-07-08T01:55:26;20.10;54.20
73576;DHT22;61859;49.204;8.140;2023-07-08T01:57:54;20.10;53.90
73576;DHT22;61859;49.204;8.140;2023-07-08T02:00:21;20.10;54.40
73576;DHT22;61859;49.204;8.140;2023-07-08T02:02:47;20.00;54.30
73576;DHT22;61859;49.204;8.140;2023-07-08T02:05:13;20.10;54.60
73576;DHT22;61859;49.204;8.140;2023-07-08T02:07:38;19.90;54.70
73576;DHT22;61859;49.204;8.140;2023-07-08T02:10:05;19.90;54.50
73576;DHT22;61859;49.204;8.140;2023-07-08T02:12:33;20.00;54.70
73576;DHT22;61859;49.204;8.140;2023-07-08T02:15:00;19.90;54.90
73576;DHT22;61859;49.204;8.140;2023-07-08T02:17:26;19.90;54.90
73576;DHT22;61859;49.204;8.140;2023-07-08T02:19:54;19.90;55.00
73576;DHT22;61859;49.204;8.140;2023-07-08T02:22:20;19.90;54.80
73576;DHT22;61859;49.204;8.140;2023-07-08T02:24:46;19.90;54.60
73576;DHT22;61859;49.204;8.140;2023-07-08T02:27:11;19.90;54.90
73576;DHT22;61859;49.204;8.140;2023-07-08T02:29:37;19.80;55.10
73576;DHT22;61859;49.204;8.140;2023-07-08T02:32:04;19.90;54.90
73576;DHT22;61859;49.204;8.140;2023-07-08T02:34:29;19.80;54.90
73576;DHT22;61859;49.204;8.140;2023-07-08T02:36:55;19.80;55.10
73576;DHT22;61859;49.204;8.140;2023-07-08T02:39:22;19.80;55.20
73576;DHT22;61859;49.204;8.140;2023-07-08T02:41:47;19.80;54.80
73576;DHT22;61859;49.204;8.140;2023-07-08T02:44:13;19.90;54.90
73576;DHT22;61859;49.204;8.140;2023-07-08T02:46:39;19.80;54.80
73576;DHT22;61859;49.204;8.140;2023-07-08T02:49:04;19.90;54.50
73576;DHT22;61859;49.204;8.140;2023-07-08T02:51:31;19.80;54.50
73576;DHT22;61859;49.204;8.140;2023-07-08T02:53:56;19.80;54.60
73576;DHT22;61859;49.204;8.140;2023-07-08T02:56:22;19.80;54.70
73576;DHT22;61859;49.204;8.140;2023-07-08T02:58:48;19.80;54.70
73576;DHT22;61859;49.204;8.140;2023-07-08T03:01:14;19.70;54.60
73576;DHT22;61859;49.204;8.140;2023-07-08T03:03:43;19.70;55.30
73576;DHT22;61859;49.204;8.140;2023-07-08T03:06:10;19.70;55.20
73576;DHT22;61859;49.204;8.140;2023-07-08T03:08:35;19.60;55.50
73576;DHT22;61859;49.204;8.140;2023-07-08T03:11:03;19.60;55.60
73576;DHT22;61859;49.204;8.140;2023-07-08T03:13:29;19.50;55.50
73576;DHT22;61859;49.204;8.140;2023-07-08T03:15:56;19.50;55.60
73576;DHT22;61859;49.204;8.140;2023-07-08T03:18:22;19.50;55.90
73576;DHT22;61859;49.204;8.140;2023-07-08T03:20:52;19.50;55.90
73576;DHT22;61859;49.204;8.140;2023-07-08T03:23:21;19.50;56.00
73576;DHT22;61859;49.204;8.140;2023-07-08T03:25:47;19.50;56.10
73576;DHT22;61859;49.204;8.140;2023-07-08T03:28:13;19.40;56.00
73576;DHT22;61859;49.204;8.140;2023-07-08T03:30:44;19.40;56.50
73576;DHT22;61859;49.204;8.140;2023-07-08T03:33:10;19.40;56.10
73576;DHT22;61859;49.204;8.140;2023-07-08T03:35:36;19.40;56.30
73576;DHT22;61859;49.204;8.140;2023-07-08T03:38:04;19.30;56.30
73576;DHT22;61859;49.204;8.140;2023-07-08T03:40:29;19.30;56.30
73576;DHT22;61859;49.204;8.140;2023-07-08T03:42:55;19.40;56.30
73576;DHT22;61859;49.204;8.140;2023-07-08T03:45:21;19.40;56.50
73576;DHT22;61859;49.204;8.140;2023-07-08T03:47:46;19.40;56.80
73576;DHT22;61859;49.204;8.140;2023-07-08T03:50:19;19.50;56.70
73576;DHT22;61859;49.204;8.140;2023-07-08T03:52:47;19.50;56.60
73576;DHT22;61859;49.204;8.140;2023-07-08T03:55:13;19.50;56.40
73576;DHT22;61859;49.204;8.140;2023-07-08T03:57:39;19.70;55.90
73576;DHT22;61859;49.204;8.140;2023-07-08T04:00:06;19.70;55.70
73576;DHT22;61859;49.204;8.140;2023-07-08T04:02:44;19.90;55.50
73576;DHT22;61859;49.204;8.140;2023-07-08T04:05:17;19.90;56.00
73576;DHT22;61859;49.204;8.140;2023-07-08T04:07:43;20.00;55.80
73576;DHT22;61859;49.204;8.140;2023-07-08T04:10:09;20.20;56.70
73576;DHT22;61859;49.204;8.140;2023-07-08T04:12:35;20.20;59.70
73576;DHT22;61859;49.204;8.140;2023-07-08T04:15:01;20.20;62.00
73576;DHT22;61859;49.204;8.140;2023-07-08T04:17:27;20.10;64.90
73576;DHT22;61859;49.204;8.140;2023-07-08T04:19:52;20.00;66.30
73576;DHT22;61859;49.204;8.140;2023-07-08T04:22:18;20.00;65.80
73576;DHT22;61859;49.204;8.140;2023-07-08T04:24:43;20.00;66.40
73576;DHT22;61859;49.204;8.140;2023-07-08T04:27:17;19.90;66.20
73576;DHT22;61859;49.204;8.140;2023-07-08T04:29:43;20.10;65.70
73576;DHT22;61859;49.204;8.140;2023-07-08T04:32:09;20.10;66.60
73576;DHT22;61859;49.204;8.140;2023-07-08T04:34:34;20.20;65.80
73576;DHT22;61859;49.204;8.140;2023-07-08T04:37:00;20.10;66.60
73576;DHT22;61859;49.204;8.140;2023-07-08T04:39:26;20.30;65.90
73576;DHT22;61859;49.204;8.140;2023-07-08T04:41:52;20.40;65.90
73576;DHT22;61859;49.204;8.140;2023-07-08T04:44:18;20.50;66.30
73576;DHT22;61859;49.204;8.140;2023-07-08T04:46:49;20.50;66.80
73576;DHT22;61859;49.204;8.140;2023-07-08T04:49:16;20.60;67.10
73576;DHT22;61859;49.204;8.140;2023-07-08T04:51:42;20.50;68.00
73576;DHT22;61859;49.204;8.140;2023-07-08T04:54:08;20.50;68.40
73576;DHT22;61859;49.204;8.140;2023-07-08T04:56:47;20.50;67.80
73576;DHT22;61859;49.204;8.140;2023-07-08T04:59:16;20.50;68.00
73576;DHT22;61859;49.204;8.140;2023-07-08T05:01:42;20.40;68.00
73576;DHT22;61859;49.204;8.140;2023-07-08T05:04:12;20.50;69.20
73576;DHT22;61859;49.204;8.140;2023-07-08T05:06:37;20.60;68.80
73576;DHT22;61859;49.204;8.140;2023-07-08T05:09:03;20.60;67.80
73576;DHT22;61859;49.204;8.140;2023-07-08T05:11:30;20.70;67.00
73576;DHT22;61859;49.204;8.140;2023-07-08T05:13:55;20.70;67.10
73576;DHT22;61859;49.204;8.140;2023-07-08T05:16:21;20.80;64.50
73576;DHT22;61859;49.204;8.140;2023-07-08T05:18:47;20.90;63.70
73576;DHT22;61859;49.204;8.140;2023-07-08T05:21:12;21.00;60.50
73576;DHT22;61859;49.204;8.140;2023-07-08T05:23:38;21.20;57.10
73576;DHT22;61859;49.204;8.140;2023-07-08T05:26:05;21.40;58.70
73576;DHT22;61859;49.204;8.140;2023-07-08T05:28:32;21.40;59.80
73576;DHT22;61859;49.204;8.140;2023-07-08T05:30:58;21.50;60.50
73576;DHT22;61859;49.204;8.140;2023-07-08T05:33:24;21.50;60.80
73576;DHT22;61859;49.204;8.140;2023-07-08T05:35:51;21.60;60.90
73576;DHT22;61859;49.204;8.140;2023-07-08T05:38:17;21.60;61.30
73576;DHT22;61859;49.204;8.140;2023-07-08T05:40:42;21.60;61.30
73576;DHT22;61859;49.204;8.140;2023-07-08T05:43:08;21.60;61.10
73576;DHT22;61859;49.204;8.140;2023-07-08T05:45:34;21.60;61.20
73576;DHT22;61859;49.204;8.140;2023-07-08T05:48:01;21.60;60.00
73576;DHT22;61859;49.204;8.140;2023-07-08T05:50:27;21.60;59.60
73576;DHT22;61859;49.204;8.140;2023-07-08T05:52:53;21.70;59.40
73576;DHT22;61859;49.204;8.140;2023-07-08T05:55:18;21.70;58.80
73576;DHT22;61859;49.204;8.140;2023-07-08T05:57:44;21.70;59.30
73576;DHT22;61859;49.204;8.140;2023-07-08T06:00:10;21.60;59.40
73576;DHT22;61859;49.204;8.140;2023-07-08T06:02:36;21.60;59.40
73576;DHT22;61859;49.204;8.140;2023-07-08T06:05:01;21.70;61.00
73576;DHT22;61859;49.204;8.140;2023-07-08T06:07:27;21.60;62.10
73576;DHT22;61859;49.204;8.140;2023-07-08T06:09:53;21.60;62.00
73576;DHT22;61859;49.204;8.140;2023-07-08T06:12:21;21.40;64.70
73576;DHT22;61859;49.204;8.140;2023-07-08T06:14:47;21.00;69.20
73576;DHT22;61859;49.204;8.140;2023-07-08T06:17:12;20.40;70.10
73576;DHT22;61859;49.204;8.140;2023-07-08T06:19:38;20.00;74.90
73576;DHT22;61859;49.204;8.140;2023-07-08T06:22:03;19.70;76.20
73576;DHT22;61859;49.204;8.140;2023-07-08T06:24:29;19.50;78.00
73576;DHT22;61859;49.204;8.140;2023-07-08T06:26:54;19.30;79.50
73576;DHT22;61859;49.204;8.140;2023-07-08T06:29:20;19.20;78.70
73576;DHT22;61859;49.204;8.140;2023-07-08T06:31:45;19.10;80.40
73576;DHT22;61859;49.204;8.140;2023-07-08T06:34:11;19.10;81.10
73576;DHT22;61859;49.204;8.140;2023-07-08T06:36:36;19.20;80.50
73576;DHT22;61859;49.204;8.140;2023-07-08T06:39:02;19.30;82.00
73576;DHT22;61859;49.204;8.140;2023-07-08T06:41:28;19.40;81.00
73576;DHT22;61859;49.204;8.140;2023-07-08T06:43:53;19.60;80.80
73576;DHT22;61859;49.204;8.140;2023-07-08T06:46:19;19.70;80.30
73576;DHT22;61859;49.204;8.140;2023-07-08T06:48:45;19.90;79.90
73576;DHT22;61859;49.204;8.140;2023-07-08T06:51:10;20.00;78.60
73576;DHT22;61859;49.204;8.140;2023-07-08T06:53:36;20.20;78.60
73576;DHT22;61859;49.204;8.140;2023-07-08T06:56:01;20.40;77.70
73576;DHT22;61859;49.204;8.140;2023-07-08T06:58:27;20.50;78.10
73576;DHT22;61859;49.204;8.140;2023-07-08T07:00:53;20.70;77.00
73576;DHT22;61859;49.204;8.140;2023-07-08T07:03:19;20.80;75.50
73576;DHT22;61859;49.204;8.140;2023-07-08T07:05:45;21.00;76.00
73576;DHT22;61859;49.204;8.140;2023-07-08T07:08:10;21.20;76.70
73576;DHT22;61859;49.204;8.140;2023-07-08T07:10:36;21.30;75.50
73576;DHT22;61859;49.204;8.140;2023-07-08T07:13:01;21.50;74.90
73576;DHT22;61859;49.204;8.140;2023-07-08T07:15:27;21.90;75.10
73576;DHT22;61859;49.204;8.140;2023-07-08T07:17:53;22.20;75.50
73576;DHT22;61859;49.204;8.140;2023-07-08T07:20:18;22.60;73.30
73576;DHT22;61859;49.204;8.140;2023-07-08T07:22:44;23.10;72.40
73576;DHT22;61859;49.204;8.140;2023-07-08T07:25:10;23.50;70.10
73576;DHT22;61859;49.204;8.140;2023-07-08T07:27:35;23.50;69.50
73576;DHT22;61859;49.204;8.140;2023-07-08T07:30:01;23.70;69.20
73576;DHT22;61859;49.204;8.140;2023-07-08T07:32:27;23.80;70.90
73576;DHT22;61859;49.204;8.140;2023-07-08T07:34:54;23.90;69.30
73576;DHT22;61859;49.204;8.140;2023-07-08T07:37:21;24.00;68.10
73576;DHT22;61859;49.204;8.140;2023-07-08T07:39:47;23.80;69.20
73576;DHT22;61859;49.204;8.140;2023-07-08T07:42:14;24.00;68.50
73576;DHT22;61859;49.204;8.140;2023-07-08T07:44:40;23.90;67.90
73576;DHT22;61859;49.204;8.140;2023-07-08T07:47:07;24.00;67.60
73576;DHT22;61859;49.204;8.140;2023-07-08T07:49:33;24.00;67.70
73576;DHT22;61859;49.204;8.140;2023-07-08T07:51:58;24.10;66.70
73576;DHT22;61859;49.204;8.140;2023-07-08T07:54:24;24.20;66.00
73576;DHT22;61859;49.204;8.140;2023-07-08T07:56:50;24.20;67.20
73576;DHT22;61859;49.204;8.140;2023-07-08T07:59:16;24.50;65.20
73576;DHT22;61859;49.204;8.140;2023-07-08T08:01:41;24.70;64.30
73576;DHT22;61859;49.204;8.140;2023-07-08T08:04:08;24.80;64.80
73576;DHT22;61859;49.204;8.140;2023-07-08T08:06:34;25.00;62.90
73576;DHT22;61859;49.204;8.140;2023-07-08T08:08:59;25.20;63.90
73576;DHT22;61859;49.204;8.140;2023-07-08T08:11:25;25.50;63.30
73576;DHT22;61859;49.204;8.140;2023-07-08T08:13:51;25.80;61.30
73576;DHT22;61859;49.204;8.140;2023-07-08T08:16:17;26.10;59.80
73576;DHT22;61859;49.204;8.140;2023-07-08T08:18:42;26.30;57.10
73576;DHT22;61859;49.204;8.140;2023-07-08T08:21:08;26.20;58.00
73576;DHT22;61859;49.204;8.140;2023-07-08T08:23:33;26.50;58.40
73576;DHT22;61859;49.204;8.140;2023-07-08T08:25:59;26.90;59.90
73576;DHT22;61859;49.204;8.140;2023-07-08T08:28:24;27.00;58.50
73576;DHT22;61859;49.204;8.140;2023-07-08T08:30:50;27.20;58.30
73576;DHT22;61859;49.204;8.140;2023-07-08T08:33:17;27.50;57.50
73576;DHT22;61859;49.204;8.140;2023-07-08T08:35:43;27.80;56.20
73576;DHT22;61859;49.204;8.140;2023-07-08T08:38:09;27.90;57.00
73576;DHT22;61859;49.204;8.140;2023-07-08T08:40:35;28.00;55.40
73576;DHT22;61859;49.204;8.140;2023-07-08T08:43:03;28.10;56.10
73576;DHT22;61859;49.204;8.140;2023-07-08T08:45:36;28.30;55.10
73576;DHT22;61859;49.204;8.140;2023-07-08T08:48:08;28.50;53.80
73576;DHT22;61859;49.204;8.140;2023-07-08T08:50:51;28.60;53.70
73576;DHT22;61859;49.204;8.140;2023-07-08T08:53:19;28.90;53.60
73576;DHT22;61859;49.204;8.140;2023-07-08T08:59:26;29.30;51.50
73576;DHT22;61859;49.204;8.140;2023-07-08T09:01:31;29.40;51.90
73576;DHT22;61859;49.204;8.140;2023-07-08T09:04:01;29.70;50.80
73576;DHT22;61859;49.204;8.140;2023-07-08T09:06:30;29.80;51.00
73576;DHT22;61859;49.204;8.140;2023-07-08T09:09:02;30.20;50.40
73576;DHT22;61859;49.204;8.140;2023-07-08T09:14:06;30.40;49.30
73576;DHT22;61859;49.204;8.140;2023-07-08T09:16:52;30.50;49.60
73576;DHT22;61859;49.204;8.140;2023-07-08T09:19:30;30.50;49.00
73576;DHT22;61859;49.204;8.140;2023-07-08T09:24:51;31.30;48.20
73576;DHT22;61859;49.204;8.140;2023-07-08T09:27:19;31.60;47.30
73576;DHT22;61859;49.204;8.140;2023-07-08T09:29:46;31.70;46.80
73576;DHT22;61859;49.204;8.140;2023-07-08T09:32:29;31.90;46.50
73576;DHT22;61859;49.204;8.140;2023-07-08T09:35:07;32.00;46.80
73576;DHT22;61859;49.204;8.140;2023-07-08T09:37:34;32.30;46.10
73576;DHT22;61859;49.204;8.140;2023-07-08T09:40:03;32.30;44.80
73576;DHT22;61859;49.204;8.140;2023-07-08T09:42:34;32.40;44.80
73576;DHT22;61859;49.204;8.140;2023-07-08T09:45:02;32.40;45.20
73576;DHT22;61859;49.204;8.140;2023-07-08T09:47:36;32.30;44.70
73576;DHT22;61859;49.204;8.140;2023-07-08T09:50:04;32.60;45.30
73576;DHT22;61859;49.204;8.140;2023-07-08T09:52:35;32.80;43.60
73576;DHT22;61859;49.204;8.140;2023-07-08T09:55:01;32.90;44.10
73576;DHT22;61859;49.204;8.140;2023-07-08T09:57:29;32.90;44.10
73576;DHT22;61859;49.204;8.140;2023-07-08T10:00:00;33.00;42.80
73576;DHT22;61859;49.204;8.140;2023-07-08T10:02:55;33.20;43.20
73576;DHT22;61859;49.204;8.140;2023-07-08T10:05:31;33.30;43.00
73576;DHT22;61859;49.204;8.140;2023-07-08T10:07:59;33.30;42.90
73576;DHT22;61859;49.204;8.140;2023-07-08T10:10:31;33.50;42.60
73576;DHT22;61859;49.204;8.140;2023-07-08T10:13:16;33.90;42.30
73576;DHT22;61859;49.204;8.140;2023-07-08T10:16:27;33.90;41.30
73576;DHT22;61859;49.204;8.140;2023-07-08T10:18:33;33.70;41.00
73576;DHT22;61859;49.204;8.140;2023-07-08T10:26:46;34.20;40.20
73576;DHT22;61859;49.204;8.140;2023-07-08T10:29:28;34.20;39.90
73576;DHT22;61859;49.204;8.140;2023-07-08T10:32:16;34.50;40.20
73576;DHT22;61859;49.204;8.140;2023-07-08T10:34:49;34.60;39.90
73576;DHT22;61859;49.204;8.140;2023-07-08T10:43:46;34.90;39.30
73576;DHT22;61859;49.204;8.140;2023-07-08T10:49:37;35.40;39.30
73576;DHT22;61859;49.204;8.140;2023-07-08T11:01:46;36.00;38.00
73576;DHT22;61859;49.204;8.140;2023-07-08T11:04:30;36.40;37.70
73576;DHT22;61859;49.204;8.140;2023-07-08T11:07:07;36.40;37.00
73576;DHT22;61859;49.204;8.140;2023-07-08T11:09:44;36.50;37.10
73576;DHT22;61859;49.204;8.140;2023-07-08T11:12:38;36.00;36.80
73576;DHT22;61859;49.204;8.140;2023-07-08T11:15:25;35.50;37.70
73576;DHT22;61859;49.204;8.140;2023-07-08T11:18:09;35.60;37.50
73576;DHT22;61859;49.204;8.140;2023-07-08T11:20:54;35.60;37.30
73576;DHT22;61859;49.204;8.140;2023-07-08T11:23:50;35.70;37.10
73576;DHT22;61859;49.204;8.140;2023-07-08T11:26:29;36.10;37.70
73576;DHT22;61859;49.204;8.140;2023-07-08T11:28:59;36.50;36.50
73576;DHT22;61859;49.204;8.140;2023-07-08T11:31:30;36.60;36.60
73576;DHT22;61859;49.204;8.140;2023-07-08T11:33:57;36.90;36.70
73576;DHT22;61859;49.204;8.140;2023-07-08T11:36:25;37.20;36.00
73576;DHT22;61859;49.204;8.140;2023-07-08T11:38:54;36.80;36.40
73576;DHT22;61859;49.204;8.140;2023-07-08T11:41:21;36.90;35.70
73576;DHT22;61859;49.204;8.140;2023-07-08T11:43:51;36.70;36.60
73576;DHT22;61859;49.204;8.140;2023-07-08T11:46:23;37.20;36.50
73576;DHT22;61859;49.204;8.140;2023-07-08T11:48:52;37.70;35.60
73576;DHT22;61859;49.204;8.140;2023-07-08T11:51:31;37.90;35.70
73576;DHT22;61859;49.204;8.140;2023-07-08T11:56:50;38.90;34.80
73576;DHT22;61859;49.204;8.140;2023-07-08T11:59:28;39.50;34.20
73576;DHT22;61859;49.204;8.140;2023-07-08T12:04:56;41.00;32.60
73576;DHT22;61859;49.204;8.140;2023-07-08T12:07:31;40.90;32.00
73576;DHT22;61859;49.204;8.140;2023-07-08T12:10:17;40.60;32.70
73576;DHT22;61859;49.204;8.140;2023-07-08T12:12:45;40.60;33.00
73576;DHT22;61859;49.204;8.140;2023-07-08T12:15:24;41.00;32.50
73576;DHT22;61859;49.204;8.140;2023-07-08T12:17:53;41.40;32.60
73576;DHT22;61859;49.204;8.140;2023-07-08T12:20:27;41.60;32.20
73576;DHT22;61859;49.204;8.140;2023-07-08T12:22:53;41.70;31.80
73576;DHT22;61859;49.204;8.140;2023-07-08T12:25:22;41.40;31.60
73576;DHT22;61859;49.204;8.140;2023-07-08T12:27:48;41.00;32.30
73576;DHT22;61859;49.204;8.140;2023-07-08T12:30:15;40.80;31.70
73576;DHT22;61859;49.204;8.140;2023-07-08T12:32:42;40.50;32.70
73576;DHT22;61859;49.204;8.140;2023-07-08T12:35:29;40.50;32.60
73576;DHT22;61859;49.204;8.140;2023-07-08T12:37:58;40.40;32.60
73576;DHT22;61859;49.204;8.140;2023-07-08T12:40:29;40.70;32.20
73576;DHT22;61859;49.204;8.140;2023-07-08T12:42:58;40.90;31.90
73576;DHT22;61859;49.204;8.140;2023-07-08T12:45:28;40.60;32.30
73576;DHT22;61859;49.204;8.140;2023-07-08T12:47:55;40.90;32.30
73576;DHT22;61859;49.204;8.140;2023-07-08T12:50:20;41.10;32.40
73576;DHT22;61859;49.204;8.140;2023-07-08T12:52:46;41.70;31.90
73576;DHT22;61859;49.204;8.140;2023-07-08T12:55:14;41.50;31.50
73576;DHT22;61859;49.204;8.140;2023-07-08T12:57:46;40.70;31.80
73576;DHT22;61859;49.204;8.140;2023-07-08T13:00:16;40.10;32.00
73576;DHT22;61859;49.204;8.140;2023-07-08T13:02:45;39.90;32.40
73576;DHT22;61859;49.204;8.140;2023-07-08T13:05:13;39.80;32.40
73576;DHT22;61859;49.204;8.140;2023-07-08T13:07:41;39.80;32.70
73576;DHT22;61859;49.204;8.140;2023-07-08T13:10:17;39.60;32.40
73576;DHT22;61859;49.204;8.140;2023-07-08T13:12:44;39.50;32.20
73576;DHT22;61859;49.204;8.140;2023-07-08T13:15:16;39.20;31.90
73576;DHT22;61859;49.204;8.140;2023-07-08T13:17:44;39.20;32.90
73576;DHT22;61859;49.204;8.140;2023-07-08T13:20:15;39.60;32.50
73576;DHT22;61859;49.204;8.140;2023-07-08T13:22:41;40.10;31.90
73576;DHT22;61859;49.204;8.140;2023-07-08T13:25:14;40.70;32.10
73576;DHT22;61859;49.204;8.140;2023-07-08T13:27:41;40.90;31.60
73576;DHT22;61859;49.204;8.140;2023-07-08T13:30:19;40.60;31.70
73576;DHT22;61859;49.204;8.140;2023-07-08T13:32:51;40.70;31.30
73576;DHT22;61859;49.204;8.140;2023-07-08T13:35:45;40.60;31.70
73576;DHT22;61859;49.204;8.140;2023-07-08T13:38:15;40.60;31.70
73576;DHT22;61859;49.204;8.140;2023-07-08T13:40:46;40.80;30.80
73576;DHT22;61859;49.204;8.140;2023-07-08T13:43:12;40.90;30.80
73576;DHT22;61859;49.204;8.140;2023-07-08T13:45:37;40.70;31.20
73576;DHT22;61859;49.204;8.140;2023-07-08T13:48:19;40.80;31.60
73576;DHT22;61859;49.204;8.140;2023-07-08T13:50:50;40.70;31.60
73576;DHT22;61859;49.204;8.140;2023-07-08T13:53:20;40.80;30.90
73576;DHT22;61859;49.204;8.140;2023-07-08T13:55:46;40.60;31.20
73576;DHT22;61859;49.204;8.140;2023-07-08T13:58:16;40.40;31.20
73576;DHT22;61859;49.204;8.140;2023-07-08T14:00:42;40.20;30.60
73576;DHT22;61859;49.204;8.140;2023-07-08T14:03:11;40.20;31.40
73576;DHT22;61859;49.204;8.140;2023-07-08T14:05:40;40.30;30.30
73576;DHT22;61859;49.204;8.140;2023-07-08T14:08:16;40.10;31.50
73576;DHT22;61859;49.204;8.140;2023-07-08T14:10:43;40.20;31.40
73576;DHT22;61859;49.204;8.140;2023-07-08T14:13:10;40.50;31.10
73576;DHT22;61859;49.204;8.140;2023-07-08T14:15:39;40.80;30.40
73576;DHT22;61859;49.204;8.140;2023-07-08T14:18:06;41.20;30.40
73576;DHT22;61859;49.204;8.140;2023-07-08T14:20:31;41.40;30.20
73576;DHT22;61859;49.204;8.140;2023-07-08T14:22:57;41.50;29.80
73576;DHT22;61859;49.204;8.140;2023-07-08T14:25:23;41.50;30.10
73576;DHT22;61859;49.204;8.140;2023-07-08T14:27:52;41.50;29.30
73576;DHT22;61859;49.204;8.140;2023-07-08T14:30:17;41.20;28.90
73576;DHT22;61859;49.204;8.140;2023-07-08T14:32:43;40.70;29.40
73576;DHT22;61859;49.204;8.140;2023-07-08T14:35:19;40.40;29.30
73576;DHT22;61859;49.204;8.140;2023-07-08T14:37:46;40.20;30.40
73576;DHT22;61859;49.204;8.140;2023-07-08T14:40:33;40.30;30.90
73576;DHT22;61859;49.204;8.140;2023-07-08T14:43:15;40.70;30.20
73576;DHT22;61859;49.204;8.140;2023-07-08T14:45:49;41.10;29.40
73576;DHT22;61859;49.204;8.140;2023-07-08T14:48:15;41.10;29.10
73576;DHT22;61859;49.204;8.140;2023-07-08T14:50:41;41.40;29.20
73576;DHT22;61859;49.204;8.140;2023-07-08T14:53:07;41.80;28.80
73576;DHT22;61859;49.204;8.140;2023-07-08T14:55:33;42.00;28.90
73576;DHT22;61859;49.204;8.140;2023-07-08T14:57:59;42.00;28.60
73576;DHT22;61859;49.204;8.140;2023-07-08T15:00:25;42.10;29.20
73576;DHT22;61859;49.204;8.140;2023-07-08T15:02:51;42.10;29.30
73576;DHT22;61859;49.204;8.140;2023-07-08T15:05:22;42.10;29.60
73576;DHT22;61859;49.204;8.140;2023-07-08T15:07:53;42.00;29.00
73576;DHT22;61859;49.204;8.140;2023-07-08T15:10:21;41.90;29.10
73576;DHT22;61859;49.204;8.140;2023-07-08T15:12:47;42.00;29.00
73576;DHT22;61859;49.204;8.140;2023-07-08T15:15:16;41.90;28.70
73576;DHT22;61859;49.204;8.140;2023-07-08T15:17:43;41.70;29.60
73576;DHT22;61859;49.204;8.140;2023-07-08T15:20:13;41.60;29.90
73576;DHT22;61859;49.204;8.140;2023-07-08T15:22:41;41.80;29.40
73576;DHT22;61859;49.204;8.140;2023-07-08T15:25:08;41.90;28.30
73576;DHT22;61859;49.204;8.140;2023-07-08T15:27:34;41.50;28.70
73576;DHT22;61859;49.204;8.140;2023-07-08T15:30:00;41.20;28.90
73576;DHT22;61859;49.204;8.140;2023-07-08T15:32:25;40.50;29.20
73576;DHT22;61859;49.204;8.140;2023-07-08T15:34:51;40.30;29.20
73576;DHT22;61859;49.204;8.140;2023-07-08T15:37:16;40.00;29.40
73576;DHT22;61859;49.204;8.140;2023-07-08T15:39:42;39.80;29.90
73576;DHT22;61859;49.204;8.140;2023-07-08T15:42:11;39.50;30.10
73576;DHT22;61859;49.204;8.140;2023-07-08T15:44:38;39.30;29.60
73576;DHT22;61859;49.204;8.140;2023-07-08T15:47:04;38.80;30.80
73576;DHT22;61859;49.204;8.140;2023-07-08T15:49:32;38.70;31.20
73576;DHT22;61859;49.204;8.140;2023-07-08T15:51:59;38.80;30.70
73576;DHT22;61859;49.204;8.140;2023-07-08T15:54:25;38.70;29.60
73576;DHT22;61859;49.204;8.140;2023-07-08T15:56:52;38.50;30.30
73576;DHT22;61859;49.204;8.140;2023-07-08T15:59:25;38.50;30.10
73576;DHT22;61859;49.204;8.140;2023-07-08T16:01:51;38.70;30.90
73576;DHT22;61859;49.204;8.140;2023-07-08T16:04:31;38.70;29.80
73576;DHT22;61859;49.204;8.140;2023-07-08T16:06:57;38.40;30.20
73576;DHT22;61859;49.204;8.140;2023-07-08T16:09:23;38.40;31.20
73576;DHT22;61859;49.204;8.140;2023-07-08T16:11:49;38.70;30.30
73576;DHT22;61859;49.204;8.140;2023-07-08T16:14:15;39.20;30.50
73576;DHT22;61859;49.204;8.140;2023-07-08T16:16:42;39.70;29.70
73576;DHT22;61859;49.204;8.140;2023-07-08T16:19:12;40.20;29.40
73576;DHT22;61859;49.204;8.140;2023-07-08T16:21:39;40.20;29.70
73576;DHT22;61859;49.204;8.140;2023-07-08T16:24:05;40.60;29.00
73576;DHT22;61859;49.204;8.140;2023-07-08T16:26:30;40.70;29.20
73576;DHT22;61859;49.204;8.140;2023-07-08T16:28:57;41.00;29.10